createdAt,value
2018-06-14T00:00:22.281Z,17.12
2018-06-14T00:02:53.325Z,17.09
2018-06-14T00:05:24.335Z,17.21
2018-06-14T00:07:55.414Z,17.05
2018-06-14T00:10:26.534Z,17.07
2018-06-14T00:12:57.758Z,17.07
2018-06-14T00:15:28.700Z,17.02
2018-06-14T00:17:59.685Z,16.99
2018-06-14T00:20:30.799Z,17.05
2018-06-14T00:23:01.858Z,17.09
2018-06-14T00:25:32.949Z,16.92
2018-06-14T00:28:03.934Z,16.86
2018-06-14T00:30:35.284Z,16.81
2018-06-14T00:33:06.424Z,16.86
2018-06-14T00:35:37.400Z,16.91
2018-06-14T00:38:08.584Z,17.00
2018-06-14T00:40:40.850Z,16.96
2018-06-14T00:43:12.096Z,16.90
2018-06-14T00:45:43.184Z,16.81
2018-06-14T00:48:14.278Z,16.75
2018-06-14T00:50:46.114Z,16.77
2018-06-14T00:53:17.188Z,16.71
2018-06-14T00:55:48.362Z,16.67
2018-06-14T00:58:20.172Z,16.58
2018-06-14T01:00:51.213Z,16.58
2018-06-14T01:03:21.811Z,16.58
2018-06-14T01:05:52.851Z,16.54
2018-06-14T01:08:23.837Z,16.52
2018-06-14T01:10:55.089Z,16.58
2018-06-14T01:13:26.293Z,16.67
2018-06-14T01:15:58.454Z,16.69
2018-06-14T01:18:29.210Z,16.69
2018-06-14T01:21:00.513Z,16.67
2018-06-14T01:23:31.493Z,16.75
2018-06-14T01:26:02.536Z,16.90
2018-06-14T01:28:33.726Z,17.01
2018-06-14T01:31:05.072Z,17.08
2018-06-14T01:33:35.969Z,17.04
2018-06-14T01:36:07.075Z,16.94
2018-06-14T01:38:38.130Z,17.00
2018-06-14T01:41:10.157Z,16.99
2018-06-14T01:43:41.115Z,16.99
2018-06-14T01:46:12.310Z,16.91
2018-06-14T01:48:43.317Z,16.88
2018-06-14T01:51:14.399Z,17.04
2018-06-14T01:53:45.442Z,16.96
2018-06-14T01:56:15.942Z,16.88
2018-06-14T01:58:46.830Z,16.98
2018-06-14T02:01:18.057Z,17.14
2018-06-14T02:03:49.548Z,17.17
2018-06-14T02:06:21.591Z,17.11
2018-06-14T02:08:53.268Z,17.03
2018-06-14T02:11:25.195Z,17.06
2018-06-14T02:13:56.497Z,17.01
2018-06-14T02:16:28.636Z,17.12
2018-06-14T02:18:59.130Z,16.97
2018-06-14T02:21:31.049Z,16.89
2018-06-14T02:24:01.946Z,16.87
2018-06-14T02:26:34.145Z,16.78
2018-06-14T02:29:05.310Z,16.77
2018-06-14T02:31:36.392Z,16.69
2018-06-14T02:34:07.229Z,16.59
2018-06-14T02:36:38.098Z,16.59
2018-06-14T02:39:09.330Z,16.57
2018-06-14T02:41:40.392Z,16.45
2018-06-14T02:44:11.605Z,16.34
2018-06-14T02:46:42.332Z,16.28
2018-06-14T02:49:12.867Z,16.28
2018-06-14T02:51:43.395Z,16.24
2018-06-14T02:54:14.507Z,16.21
2018-06-14T02:56:45.491Z,16.20
2018-06-14T02:59:17.274Z,16.15
2018-06-14T03:01:48.328Z,16.13
2018-06-14T03:04:19.551Z,16.16
2018-06-14T03:06:50.869Z,16.24
2018-06-14T03:09:21.814Z,16.27
2018-06-14T03:11:53.129Z,16.39
2018-06-14T03:14:24.089Z,16.37
2018-06-14T03:16:56.239Z,16.44
2018-06-14T03:19:28.261Z,16.40
2018-06-14T03:22:00.389Z,16.31
2018-06-14T03:24:31.474Z,16.27
2018-06-14T03:27:02.246Z,16.22
2018-06-14T03:29:33.220Z,16.26
2018-06-14T03:32:04.831Z,16.20
2018-06-14T03:34:36.932Z,16.18
2018-06-14T03:37:07.595Z,16.22
2018-06-14T03:39:39.067Z,16.22
2018-06-14T03:42:13.513Z,16.22
2018-06-14T03:44:44.583Z,16.21
2018-06-14T03:47:16.709Z,16.19
2018-06-14T03:49:47.871Z,16.18
2018-06-14T03:52:18.746Z,16.20
2018-06-14T03:54:49.662Z,16.24
2018-06-14T03:57:21.958Z,16.26
2018-06-14T03:59:53.068Z,16.25
2018-06-14T04:02:24.401Z,16.20
2018-06-14T04:04:55.646Z,16.21
2018-06-14T04:07:27.111Z,16.31
2018-06-14T04:09:58.078Z,16.38
2018-06-14T04:12:29.235Z,16.41
2018-06-14T04:15:00.217Z,16.47
2018-06-14T04:17:31.429Z,16.50
2018-06-14T04:20:02.372Z,16.51
2018-06-14T04:22:33.337Z,16.56
2018-06-14T04:25:04.570Z,16.61
2018-06-14T04:27:36.596Z,16.56
2018-06-14T04:30:09.253Z,16.47
2018-06-14T04:32:41.467Z,16.39
2018-06-14T04:35:13.433Z,16.40
2018-06-14T04:37:44.453Z,16.39
2018-06-14T04:40:15.576Z,16.45
2018-06-14T04:42:46.507Z,16.45
2018-06-14T04:45:17.794Z,16.51
2018-06-14T04:47:48.839Z,16.53
2018-06-14T04:50:19.929Z,16.55
2018-06-14T04:52:51.089Z,16.59
2018-06-14T04:55:22.532Z,16.63
2018-06-14T04:57:53.611Z,16.70
2018-06-14T05:00:24.763Z,16.72
2018-06-14T05:02:55.752Z,16.70
2018-06-14T05:05:26.323Z,16.74
2018-06-14T05:07:58.175Z,16.75
2018-06-14T05:10:29.159Z,16.80
2018-06-14T05:13:00.256Z,16.82
2018-06-14T05:15:31.304Z,16.89
2018-06-14T05:18:02.474Z,16.93
2018-06-14T05:20:33.567Z,16.99
2018-06-14T05:23:05.552Z,17.07
2018-06-14T05:25:36.634Z,17.16
2018-06-14T05:28:07.739Z,17.25
2018-06-14T05:30:38.857Z,17.31
2018-06-14T05:33:09.875Z,17.40
2018-06-14T05:35:41.233Z,17.43
2018-06-14T05:38:13.668Z,17.63
2018-06-14T05:40:45.628Z,17.70
2018-06-14T05:43:16.680Z,17.85
2018-06-14T05:45:47.643Z,17.92
2018-06-14T05:48:18.629Z,17.97
2018-06-14T05:50:50.472Z,18.10
2018-06-14T05:53:20.945Z,18.16
2018-06-14T05:55:51.956Z,18.21
2018-06-14T05:58:22.810Z,18.24
2018-06-14T06:00:53.862Z,18.19
2018-06-14T06:03:24.992Z,18.25
2018-06-14T06:05:55.878Z,18.41
2018-06-14T06:08:26.932Z,18.50
2018-06-14T06:10:57.688Z,18.48
2018-06-14T06:13:29.007Z,18.41
2018-06-14T06:16:00.487Z,18.43
2018-06-14T06:18:31.399Z,18.49
2018-06-14T06:21:02.047Z,18.65
2018-06-14T06:23:33.072Z,18.75
2018-06-14T06:26:04.138Z,18.76
2018-06-14T06:28:36.342Z,18.93
2018-06-14T06:31:07.554Z,18.90
2018-06-14T06:33:38.861Z,18.82
2018-06-14T06:36:10.336Z,18.78
2018-06-14T06:38:41.066Z,18.89
2018-06-14T06:41:12.090Z,19.00
2018-06-14T06:43:43.335Z,19.14
2018-06-14T06:46:14.748Z,19.24
2018-06-14T06:48:46.301Z,19.32
2018-06-14T06:51:17.391Z,19.34
2018-06-14T06:53:48.269Z,19.37
2018-06-14T06:56:19.330Z,19.52
2018-06-14T06:58:50.477Z,19.53
2018-06-14T07:01:21.806Z,19.51
2018-06-14T07:03:52.869Z,19.70
2018-06-14T07:06:25.444Z,19.50
2018-06-14T07:08:56.617Z,19.41
2018-06-14T07:11:28.394Z,19.41
2018-06-14T07:13:59.464Z,19.62
2018-06-14T07:16:30.442Z,19.67
2018-06-14T07:19:01.401Z,19.84
2018-06-14T07:21:32.897Z,19.72
2018-06-14T07:24:04.163Z,19.61
2018-06-14T07:26:36.192Z,19.74
2018-06-14T07:29:07.240Z,19.71
2018-06-14T07:31:38.334Z,19.75
2018-06-14T07:34:09.493Z,19.77
2018-06-14T07:36:40.704Z,19.97
2018-06-14T07:39:12.962Z,19.92
2018-06-14T07:41:45.203Z,19.92
2018-06-14T07:44:16.203Z,19.91
2018-06-14T07:46:50.087Z,19.96
2018-06-14T07:49:21.592Z,19.83
2018-06-14T07:51:53.680Z,19.64
2018-06-14T07:54:24.769Z,19.56
2018-06-14T07:56:55.865Z,19.47
2018-06-14T07:59:26.886Z,19.48
2018-06-14T08:01:58.651Z,19.41
2018-06-14T08:04:30.241Z,19.43
2018-06-14T08:07:01.283Z,19.40
2018-06-14T08:09:32.064Z,19.40
2018-06-14T08:12:03.131Z,19.44
2018-06-14T08:14:33.871Z,19.46
2018-06-14T08:17:05.121Z,19.48
2018-06-14T08:19:36.154Z,19.46
2018-06-14T08:22:07.249Z,19.40
2018-06-14T08:24:39.117Z,19.41
2018-06-14T08:27:10.055Z,19.43
2018-06-14T08:29:40.840Z,19.35
2018-06-14T08:32:11.806Z,19.41
2018-06-14T08:34:42.810Z,19.41
2018-06-14T08:37:13.729Z,19.42
2018-06-14T08:39:44.749Z,19.37
2018-06-14T08:42:15.896Z,19.43
2018-06-14T08:44:46.882Z,19.51
2018-06-14T08:47:17.610Z,19.50
2018-06-14T08:49:48.847Z,19.49
2018-06-14T08:52:19.325Z,19.58
2018-06-14T08:54:50.508Z,19.64
2018-06-14T08:57:21.309Z,19.69
2018-06-14T08:59:52.099Z,19.78
2018-06-14T09:02:23.336Z,19.88
2018-06-14T09:04:53.929Z,19.88
2018-06-14T09:07:24.823Z,20.01
2018-06-14T09:09:55.813Z,20.12
2018-06-14T09:12:27.014Z,20.21
2018-06-14T09:14:58.945Z,20.31
2018-06-14T09:17:29.869Z,20.39
2018-06-14T09:20:00.589Z,20.69
2018-06-14T09:22:31.710Z,20.74
2018-06-14T09:25:02.477Z,20.89
2018-06-14T09:27:34.277Z,21.13
2018-06-14T09:30:05.287Z,21.30
2018-06-14T09:32:36.580Z,21.41
2018-06-14T09:35:08.082Z,21.54
2018-06-14T09:37:39.385Z,21.43
2018-06-14T09:40:10.438Z,21.64
2018-06-14T09:42:41.447Z,21.75
2018-06-14T09:45:12.663Z,21.92
2018-06-14T09:47:44.121Z,21.95
2018-06-14T09:50:15.526Z,22.05
2018-06-14T09:52:48.027Z,22.10
2018-06-14T09:55:19.149Z,21.92
2018-06-14T09:57:50.175Z,21.99
2018-06-14T10:00:21.484Z,22.21
2018-06-14T10:02:52.526Z,22.35
2018-06-14T10:05:24.160Z,22.38
2018-06-14T10:07:55.079Z,22.31
2018-06-14T10:10:25.951Z,22.41
2018-06-14T10:12:57.703Z,22.35
2018-06-14T10:15:29.756Z,22.51
2018-06-14T10:18:00.917Z,22.61
2018-06-14T10:20:31.543Z,22.76
2018-06-14T10:23:03.744Z,22.65
2018-06-14T10:25:34.754Z,22.56
2018-06-14T10:28:06.131Z,22.59
2018-06-14T10:30:37.157Z,22.60
2018-06-14T10:33:08.275Z,22.51
2018-06-14T10:35:39.355Z,22.65
2018-06-14T10:38:10.636Z,22.77
2018-06-14T10:40:41.974Z,22.70
2018-06-14T10:43:13.271Z,22.67
2018-06-14T10:45:44.093Z,22.65
2018-06-14T10:48:15.253Z,22.65
2018-06-14T10:50:46.300Z,22.71
2018-06-14T10:53:18.306Z,22.48
2018-06-14T10:55:49.349Z,22.46
2018-06-14T10:58:20.612Z,22.36
2018-06-14T11:00:51.837Z,22.28
2018-06-14T11:03:24.096Z,22.23
2018-06-14T11:05:55.446Z,22.29
2018-06-14T11:08:26.664Z,22.39
2018-06-14T11:10:57.797Z,22.55
2018-06-14T11:13:31.078Z,22.63
2018-06-14T11:16:02.333Z,22.65
2018-06-14T11:18:33.403Z,22.65
2018-06-14T11:21:04.588Z,22.68
2018-06-14T11:23:35.563Z,22.73
2018-06-14T11:26:06.743Z,22.68
2018-06-14T11:28:38.594Z,22.54
2018-06-14T11:31:09.759Z,22.54
2018-06-14T11:33:41.085Z,22.27
2018-06-14T11:36:12.176Z,22.28
2018-06-14T11:38:43.703Z,22.21
2018-06-14T11:41:14.834Z,22.37
2018-06-14T11:43:46.079Z,22.48
2018-06-14T11:46:16.843Z,22.59
2018-06-14T11:48:47.908Z,22.71
2018-06-14T11:51:19.815Z,22.79
2018-06-14T11:53:50.736Z,22.81
2018-06-14T11:56:22.419Z,22.70
2018-06-14T11:58:53.477Z,22.60
2018-06-14T12:01:24.619Z,22.58
2018-06-14T12:03:55.759Z,22.60
2018-06-14T12:06:26.906Z,22.67
2018-06-14T12:08:58.104Z,22.71
2018-06-14T12:11:29.864Z,22.70
2018-06-14T12:14:01.010Z,22.68
2018-06-14T12:16:33.032Z,22.71
2018-06-14T12:19:04.237Z,22.89
2018-06-14T12:21:36.618Z,22.95
2018-06-14T12:24:07.870Z,23.12
2018-06-14T12:26:38.903Z,23.17
2018-06-14T12:29:10.247Z,23.31
2018-06-14T12:31:41.436Z,23.43
2018-06-14T12:34:12.526Z,23.55
2018-06-14T12:36:43.766Z,23.23
2018-06-14T12:39:14.970Z,23.28
2018-06-14T12:41:46.264Z,23.52
2018-06-14T12:44:17.617Z,23.72
2018-06-14T12:46:48.866Z,23.95
2018-06-14T12:49:19.859Z,24.09
2018-06-14T12:51:51.226Z,24.39
2018-06-14T12:54:22.286Z,24.57
2018-06-14T12:56:53.345Z,24.84
2018-06-14T12:59:24.613Z,24.78
2018-06-14T13:01:55.906Z,24.94
2018-06-14T13:04:26.677Z,25.07
2018-06-14T13:06:57.672Z,25.27
2018-06-14T13:39:52.071Z,25.52
2018-06-14T13:42:23.221Z,25.64
2018-06-14T13:44:53.802Z,25.44
2018-06-14T13:47:25.163Z,25.65
2018-06-14T13:49:56.588Z,25.74
2018-06-14T13:52:27.560Z,25.50
2018-06-14T13:54:58.682Z,25.58
2018-06-14T13:57:29.710Z,25.60
2018-06-14T14:00:00.884Z,25.86
2018-06-14T14:02:31.663Z,26.06
2018-06-14T14:05:02.734Z,26.00
2018-06-14T14:07:33.949Z,25.77
2018-06-14T14:10:05.138Z,25.92
2018-06-14T14:12:36.233Z,25.96
2018-06-14T14:15:07.914Z,25.60
2018-06-14T14:17:38.882Z,25.52
2018-06-14T14:20:10.591Z,25.88
2018-06-14T14:22:41.751Z,26.13
2018-06-14T14:25:12.579Z,26.44
2018-06-14T14:27:43.585Z,26.10
2018-06-14T14:30:14.271Z,25.92
2018-06-14T14:32:45.883Z,26.10
2018-06-14T14:35:17.221Z,25.88
2018-06-14T14:37:48.814Z,25.76
2018-06-14T14:40:20.120Z,25.68
2018-06-14T14:42:51.681Z,25.51
2018-06-14T14:45:22.644Z,25.35
2018-06-14T14:47:53.420Z,25.42
2018-06-14T14:50:24.655Z,25.68
2018-06-14T14:52:55.684Z,25.84
2018-06-14T14:55:26.487Z,25.78
2018-06-14T14:57:57.846Z,25.73
2018-06-14T15:00:28.887Z,25.62
2018-06-14T15:02:59.949Z,25.73
2018-06-14T15:05:31.174Z,25.88
2018-06-14T15:08:03.230Z,25.97
2018-06-14T15:10:33.822Z,25.91
2018-06-14T15:13:04.713Z,25.76
2018-06-14T15:15:35.713Z,25.85
2018-06-14T15:18:06.668Z,25.81
2018-06-14T15:20:37.772Z,25.65
2018-06-14T15:23:09.020Z,25.72
2018-06-14T15:25:40.097Z,25.74
2018-06-14T15:28:10.961Z,25.77
2018-06-14T15:30:42.023Z,25.68
2018-06-14T15:33:13.036Z,25.44
2018-06-14T15:35:44.051Z,25.49
2018-06-14T15:38:15.474Z,25.56
2018-06-14T15:40:46.684Z,25.58
2018-06-14T15:43:18.025Z,25.38
2018-06-14T15:45:49.111Z,25.52
2018-06-14T15:48:20.461Z,25.60
2018-06-14T15:50:51.294Z,25.50
2018-06-14T15:53:22.390Z,25.99
2018-06-14T15:56:09.240Z,26.08
2018-06-14T15:58:40.499Z,25.86
2018-06-14T16:01:11.733Z,26.29
2018-06-14T16:03:42.921Z,26.46
2018-06-14T16:06:13.609Z,26.20
2018-06-14T16:08:44.714Z,26.13
2018-06-14T16:11:15.867Z,25.88
2018-06-14T16:13:46.894Z,25.96
2018-06-14T16:16:17.624Z,25.81
2018-06-14T16:18:49.109Z,25.99
2018-06-14T16:21:20.366Z,26.05
2018-06-14T16:23:51.678Z,26.00
2018-06-14T16:26:22.746Z,25.97
2018-06-14T16:28:53.892Z,25.93
2018-06-14T16:31:25.078Z,25.94
2018-06-14T16:33:56.198Z,25.80
2018-06-14T16:36:27.321Z,25.90
2018-06-14T16:38:58.431Z,25.82
2018-06-14T16:41:29.560Z,25.44
2018-06-14T16:44:01.432Z,25.08
2018-06-14T16:46:32.516Z,25.15
2018-06-14T16:49:03.594Z,25.16
2018-06-14T16:51:34.790Z,25.07
2018-06-14T16:54:06.147Z,25.16
2018-06-14T16:56:38.166Z,25.25
2018-06-14T16:59:09.293Z,25.42
2018-06-14T17:01:41.816Z,25.50
2018-06-14T17:04:13.052Z,25.29
2018-06-14T17:06:44.865Z,25.11
2018-06-14T17:09:16.266Z,25.49
2018-06-14T17:11:48.069Z,25.49
2018-06-14T17:14:19.791Z,25.47
2018-06-14T17:16:50.891Z,25.68
2018-06-14T17:19:22.823Z,26.22
2018-06-14T17:21:53.939Z,26.15
2018-06-14T17:24:24.990Z,26.11
2018-06-14T17:26:56.918Z,25.73
2018-06-14T17:29:28.084Z,25.15
2018-06-14T17:31:59.065Z,24.66
2018-06-14T17:34:30.194Z,24.37
2018-06-14T17:37:01.281Z,24.08
2018-06-14T17:39:32.296Z,23.89
2018-06-14T17:42:03.339Z,23.79
2018-06-14T17:44:34.542Z,23.62
2018-06-14T17:47:06.677Z,23.49
2018-06-14T17:49:37.301Z,23.36
2018-06-14T17:52:08.446Z,23.26
2018-06-14T17:54:39.428Z,23.33
2018-06-14T17:57:10.892Z,23.32
2018-06-14T17:59:42.005Z,23.33
2018-06-14T18:02:13.127Z,23.05
2018-06-14T18:04:44.230Z,22.95
2018-06-14T18:07:15.501Z,22.92
2018-06-14T18:09:46.527Z,22.86
2018-06-14T18:12:17.845Z,22.85
2018-06-14T18:14:49.080Z,22.81
2018-06-14T18:17:20.230Z,22.71
2018-06-14T18:19:51.300Z,22.66
2018-06-14T18:22:22.539Z,22.73
2018-06-14T18:24:53.862Z,22.66
2018-06-14T18:27:25.053Z,22.53
2018-06-14T18:29:56.342Z,22.51
2018-06-14T18:32:26.955Z,22.28
2018-06-14T18:34:57.521Z,22.17
2018-06-14T18:37:28.566Z,22.09
2018-06-14T18:39:59.804Z,22.06
2018-06-14T18:42:30.908Z,21.96
2018-06-14T18:45:02.063Z,22.03
2018-06-14T18:47:34.381Z,22.04
2018-06-14T18:50:05.477Z,21.90
2018-06-14T18:52:36.799Z,21.92
2018-06-14T18:55:07.921Z,21.90
2018-06-14T18:57:39.190Z,21.87
2018-06-14T19:00:10.496Z,21.76
2018-06-14T19:02:41.781Z,21.65
2018-06-14T19:05:13.872Z,21.59
2018-06-14T19:07:45.081Z,21.46
2018-06-14T19:10:16.318Z,21.38
2018-06-14T19:12:47.479Z,21.29
2018-06-14T19:15:18.676Z,21.36
2018-06-14T19:17:49.741Z,21.49
2018-06-14T19:20:20.960Z,21.55
2018-06-14T19:22:51.654Z,21.61
2018-06-14T19:25:22.756Z,21.37
2018-06-14T19:27:54.031Z,21.20
2018-06-14T19:30:25.661Z,21.14
2018-06-14T19:32:57.061Z,21.11
2018-06-14T19:35:28.164Z,21.21
2018-06-14T19:37:59.416Z,21.32
2018-06-14T19:40:30.578Z,21.33
2018-06-14T19:43:01.827Z,21.36
2018-06-14T19:45:33.166Z,21.33
2018-06-14T19:48:35.242Z,21.10
2018-06-14T19:51:06.601Z,21.05
2018-06-14T19:53:37.855Z,21.08
2018-06-14T19:56:09.187Z,21.22
2018-06-14T19:58:40.784Z,21.28
2018-06-14T20:01:11.970Z,21.16
2018-06-14T20:03:43.195Z,21.12
2018-06-14T20:06:14.492Z,20.86
2018-06-14T20:08:45.522Z,20.79
2018-06-14T20:11:16.937Z,20.74
2018-06-14T20:13:48.274Z,20.65
2018-06-14T20:16:19.431Z,20.57
2018-06-14T20:18:50.463Z,20.50
2018-06-14T20:21:21.607Z,20.25
2018-06-14T20:26:38.310Z,20.26
2018-06-14T20:29:09.666Z,20.33
2018-06-14T20:31:40.723Z,20.47
2018-06-14T20:34:12.916Z,20.39
2018-06-14T20:36:44.071Z,20.15
2018-06-14T20:39:15.304Z,19.92
2018-06-14T20:41:46.281Z,19.92
2018-06-14T20:44:17.150Z,19.80
2018-06-14T20:46:48.020Z,19.74
2018-06-14T20:49:18.898Z,19.58
2018-06-14T20:51:49.809Z,19.48
2018-06-14T20:54:20.756Z,19.40
2018-06-14T20:56:51.585Z,19.49
2018-06-14T20:59:23.700Z,19.57
2018-06-14T21:01:54.888Z,19.54
2018-06-14T21:04:26.065Z,19.62
2018-06-14T21:06:57.957Z,19.51
2018-06-14T21:09:29.891Z,19.51
2018-06-14T21:12:00.245Z,19.72
2018-06-14T21:14:31.213Z,19.55
2018-06-14T21:17:02.333Z,19.54
2018-06-14T21:19:33.165Z,19.38
2018-06-14T21:22:05.055Z,19.32
2018-06-14T21:24:35.844Z,19.25
2018-06-14T21:27:06.932Z,19.28
2018-06-14T21:29:37.752Z,19.46
2018-06-14T21:32:09.888Z,19.64
2018-06-14T21:34:40.975Z,19.73
2018-06-14T21:37:11.776Z,19.81
2018-06-14T21:39:42.534Z,19.95
2018-06-14T21:42:13.291Z,19.98
2018-06-14T21:44:44.095Z,20.06
2018-06-14T21:47:17.148Z,20.06
2018-06-14T21:49:48.017Z,19.93
2018-06-14T21:52:19.045Z,20.00
2018-06-14T21:54:49.860Z,19.92
2018-06-14T21:57:20.989Z,20.01
2018-06-14T21:59:51.728Z,19.92
2018-06-14T22:02:22.573Z,19.84
2018-06-14T22:04:53.351Z,19.90
2018-06-14T22:07:24.920Z,19.88
2018-06-14T22:09:56.468Z,19.89
2018-06-14T22:12:27.256Z,19.91
2018-06-14T22:14:58.104Z,20.07
2018-06-14T22:17:28.849Z,20.12
2018-06-14T22:19:59.589Z,20.11
2018-06-14T22:22:30.404Z,20.10
2018-06-14T22:25:01.174Z,20.00
2018-06-14T22:27:32.134Z,20.07
2018-06-14T22:30:03.021Z,20.08
2018-06-14T22:32:34.041Z,20.01
2018-06-14T22:35:29.378Z,19.84
2018-06-14T22:38:00.121Z,19.93
2018-06-14T22:40:32.052Z,19.87
2018-06-14T22:43:02.766Z,19.69
2018-06-14T22:45:33.545Z,19.77
2018-06-14T22:48:04.362Z,19.63
2018-06-14T22:50:51.397Z,19.62
2018-06-14T22:53:22.276Z,19.63
2018-06-14T22:55:53.092Z,19.65
2018-06-14T22:58:23.851Z,19.73
2018-06-14T23:01:35.869Z,19.82
2018-06-14T23:04:07.527Z,19.62
2018-06-14T23:06:38.258Z,19.19
2018-06-14T23:10:34.501Z,19.07
2018-06-14T23:13:05.864Z,18.78
2018-06-14T23:15:36.934Z,18.70
2018-06-14T23:18:07.795Z,18.50
2018-06-14T23:20:38.746Z,18.60
2018-06-14T23:23:10.183Z,18.50
2018-06-14T23:25:41.180Z,18.50
2018-06-14T23:28:11.948Z,18.52
2018-06-14T23:30:42.810Z,18.68
2018-06-14T23:33:13.892Z,18.61
2018-06-14T23:35:45.655Z,18.66
2018-06-14T23:38:16.426Z,18.53
2018-06-14T23:40:48.288Z,18.49
2018-06-14T23:43:19.120Z,18.53
2018-06-14T23:45:49.918Z,18.59
2018-06-14T23:48:20.666Z,18.70
2018-06-14T23:50:51.418Z,18.69
2018-06-14T23:53:22.421Z,18.64
2018-06-14T23:55:53.220Z,18.63
2018-06-14T23:58:23.998Z,18.58
